sensor_id;sensor_type;location;lat;lon;timestamp;P1;durP1;ratioP1;P2;durP2;ratioP2
34978;SDS011;21185;50.978;13.720;2022-12-07T00:04:35;9.70;;;4.68;;
34978;SDS011;21185;50.978;13.720;2022-12-07T00:09:37;10.70;;;5.07;;
34978;SDS011;21185;50.978;13.720;2022-12-07T00:14:40;10.50;;;5.35;;
34978;SDS011;21185;50.978;13.720;2022-12-07T00:19:42;8.60;;;3.80;;
34978;SDS011;21185;50.978;13.720;2022-12-07T00:24:44;12.45;;;4.90;;
34978;SDS011;21185;50.978;13.720;2022-12-07T00:29:45;9.98;;;4.68;;
34978;SDS011;21185;50.978;13.720;2022-12-07T00:34:48;8.18;;;4.00;;
34978;SDS011;21185;50.978;13.720;2022-12-07T00:39:49;12.48;;;5.22;;
34978;SDS011;21185;50.978;13.720;2022-12-07T00:44:51;10.70;;;4.47;;
34978;SDS011;21185;50.978;13.720;2022-12-07T00:49:53;11.25;;;5.47;;
34978;SDS011;21185;50.978;13.720;2022-12-07T00:54:55;8.23;;;4.10;;
34978;SDS011;21185;50.978;13.720;2022-12-07T00:59:57;8.25;;;4.40;;
34978;SDS011;21185;50.978;13.720;2022-12-07T01:04:59;10.27;;;4.82;;
34978;SDS011;21185;50.978;13.720;2022-12-07T01:10:01;9.02;;;4.65;;
34978;SDS011;21185;50.978;13.720;2022-12-07T01:15:04;8.25;;;4.20;;
34978;SDS011;21185;50.978;13.720;2022-12-07T01:20:06;13.60;;;4.43;;
34978;SDS011;21185;50.978;13.720;2022-12-07T01:25:09;9.05;;;4.55;;
34978;SDS011;21185;50.978;13.720;2022-12-07T01:30:12;8.63;;;3.92;;
34978;SDS011;21185;50.978;13.720;2022-12-07T01:35:14;6.88;;;3.47;;
34978;SDS011;21185;50.978;13.720;2022-12-07T01:40:17;9.45;;;4.20;;
34978;SDS011;21185;50.978;13.720;2022-12-07T01:50:39;7.55;;;3.78;;
34978;SDS011;21185;50.978;13.720;2022-12-07T01:55:44;8.75;;;3.35;;
34978;SDS011;21185;50.978;13.720;2022-12-07T02:00:49;9.63;;;3.95;;
34978;SDS011;21185;50.978;13.720;2022-12-07T02:05:51;6.38;;;3.03;;
34978;SDS011;21185;50.978;13.720;2022-12-07T02:10:55;6.15;;;3.33;;
34978;SDS011;21185;50.978;13.720;2022-12-07T02:26:29;4.63;;;2.63;;
34978;SDS011;21185;50.978;13.720;2022-12-07T02:32:09;7.88;;;3.78;;
34978;SDS011;21185;50.978;13.720;2022-12-07T02:42:50;6.85;;;3.47;;
34978;SDS011;21185;50.978;13.720;2022-12-07T02:47:57;9.27;;;4.18;;
34978;SDS011;21185;50.978;13.720;2022-12-07T02:53:01;7.72;;;4.28;;
34978;SDS011;21185;50.978;13.720;2022-12-07T03:03:29;14.75;;;6.03;;
34978;SDS011;21185;50.978;13.720;2022-12-07T03:08:44;10.95;;;5.78;;
34978;SDS011;21185;50.978;13.720;2022-12-07T03:19:16;10.75;;;4.95;;
34978;SDS011;21185;50.978;13.720;2022-12-07T03:24:23;8.88;;;4.55;;
34978;SDS011;21185;50.978;13.720;2022-12-07T03:29:30;11.73;;;5.20;;
34978;SDS011;21185;50.978;13.720;2022-12-07T03:34:47;9.27;;;5.07;;
34978;SDS011;21185;50.978;13.720;2022-12-07T03:44:56;8.68;;;4.50;;
34978;SDS011;21185;50.978;13.720;2022-12-07T03:50:03;11.15;;;5.20;;
34978;SDS011;21185;50.978;13.720;2022-12-07T03:55:19;9.68;;;4.65;;
34978;SDS011;21185;50.978;13.720;2022-12-07T04:00:36;10.60;;;4.65;;
34978;SDS011;21185;50.978;13.720;2022-12-07T04:05:39;11.10;;;4.47;;
34978;SDS011;21185;50.978;13.720;2022-12-07T04:10:41;9.50;;;4.88;;
34978;SDS011;21185;50.978;13.720;2022-12-07T04:15:42;9.55;;;4.88;;
34978;SDS011;21185;50.978;13.720;2022-12-07T04:20:45;10.90;;;5.32;;
34978;SDS011;21185;50.978;13.720;2022-12-07T04:25:48;9.65;;;3.90;;
34978;SDS011;21185;50.978;13.720;2022-12-07T04:30:50;8.90;;;4.22;;
34978;SDS011;21185;50.978;13.720;2022-12-07T04:35:51;13.25;;;4.88;;
34978;SDS011;21185;50.978;13.720;2022-12-07T04:40:53;9.07;;;4.38;;
34978;SDS011;21185;50.978;13.720;2022-12-07T04:45:55;8.75;;;4.45;;
34978;SDS011;21185;50.978;13.720;2022-12-07T04:50:57;9.65;;;4.75;;
34978;SDS011;21185;50.978;13.720;2022-12-07T04:55:59;7.35;;;4.20;;
34978;SDS011;21185;50.978;13.720;2022-12-07T05:01:02;10.57;;;4.90;;
34978;SDS011;21185;50.978;13.720;2022-12-07T05:06:04;7.45;;;3.92;;
34978;SDS011;21185;50.978;13.720;2022-12-07T05:11:13;8.90;;;4.32;;
34978;SDS011;21185;50.978;13.720;2022-12-07T05:16:37;7.55;;;3.53;;
34978;SDS011;21185;50.978;13.720;2022-12-07T05:21:40;8.68;;;4.30;;
34978;SDS011;21185;50.978;13.720;2022-12-07T05:26:42;8.43;;;3.75;;
34978;SDS011;21185;50.978;13.720;2022-12-07T05:31:45;9.20;;;4.05;;
34978;SDS011;21185;50.978;13.720;2022-12-07T05:36:47;8.30;;;3.70;;
34978;SDS011;21185;50.978;13.720;2022-12-07T05:41:49;7.40;;;3.72;;
34978;SDS011;21185;50.978;13.720;2022-12-07T05:47:09;5.80;;;3.25;;
34978;SDS011;21185;50.978;13.720;2022-12-07T05:52:15;5.82;;;3.25;;
34978;SDS011;21185;50.978;13.720;2022-12-07T05:57:17;7.20;;;3.22;;
34978;SDS011;21185;50.978;13.720;2022-12-07T06:02:19;5.25;;;3.08;;
34978;SDS011;21185;50.978;13.720;2022-12-07T06:07:21;8.13;;;3.00;;
34978;SDS011;21185;50.978;13.720;2022-12-07T06:12:23;6.55;;;2.85;;
34978;SDS011;21185;50.978;13.720;2022-12-07T06:17:38;5.03;;;2.58;;
34978;SDS011;21185;50.978;13.720;2022-12-07T06:22:40;3.95;;;2.47;;
34978;SDS011;21185;50.978;13.720;2022-12-07T06:27:42;3.47;;;2.67;;
34978;SDS011;21185;50.978;13.720;2022-12-07T06:32:44;6.35;;;2.65;;
34978;SDS011;21185;50.978;13.720;2022-12-07T06:37:46;4.80;;;2.63;;
34978;SDS011;21185;50.978;13.720;2022-12-07T06:42:47;6.15;;;3.20;;
34978;SDS011;21185;50.978;13.720;2022-12-07T06:47:52;7.15;;;3.05;;
34978;SDS011;21185;50.978;13.720;2022-12-07T06:52:54;4.32;;;2.38;;
34978;SDS011;21185;50.978;13.720;2022-12-07T06:57:56;4.07;;;2.55;;
34978;SDS011;21185;50.978;13.720;2022-12-07T07:02:58;3.95;;;2.53;;
34978;SDS011;21185;50.978;13.720;2022-12-07T07:08:00;4.70;;;2.80;;
34978;SDS011;21185;50.978;13.720;2022-12-07T07:13:22;4.53;;;2.58;;
34978;SDS011;21185;50.978;13.720;2022-12-07T07:18:24;7.78;;;2.80;;
34978;SDS011;21185;50.978;13.720;2022-12-07T07:23:26;4.45;;;2.78;;
34978;SDS011;21185;50.978;13.720;2022-12-07T07:28:28;5.55;;;2.67;;
34978;SDS011;21185;50.978;13.720;2022-12-07T07:33:30;3.88;;;2.65;;
34978;SDS011;21185;50.978;13.720;2022-12-07T07:38:31;4.35;;;2.30;;
34978;SDS011;21185;50.978;13.720;2022-12-07T07:43:33;4.25;;;2.28;;
34978;SDS011;21185;50.978;13.720;2022-12-07T07:48:35;3.03;;;1.60;;
34978;SDS011;21185;50.978;13.720;2022-12-07T07:53:37;2.50;;;1.80;;
34978;SDS011;21185;50.978;13.720;2022-12-07T07:58:38;3.90;;;2.38;;
34978;SDS011;21185;50.978;13.720;2022-12-07T08:03:40;5.32;;;2.40;;
34978;SDS011;21185;50.978;13.720;2022-12-07T08:08:42;4.32;;;1.85;;
34978;SDS011;21185;50.978;13.720;2022-12-07T08:13:47;6.28;;;2.80;;
34978;SDS011;21185;50.978;13.720;2022-12-07T08:18:49;6.30;;;3.70;;
34978;SDS011;21185;50.978;13.720;2022-12-07T08:23:50;9.52;;;3.22;;
34978;SDS011;21185;50.978;13.720;2022-12-07T08:28:52;6.25;;;3.78;;
34978;SDS011;21185;50.978;13.720;2022-12-07T08:33:54;5.70;;;3.53;;
34978;SDS011;21185;50.978;13.720;2022-12-07T08:38:56;8.88;;;3.80;;
34978;SDS011;21185;50.978;13.720;2022-12-07T08:44:18;8.38;;;4.18;;
34978;SDS011;21185;50.978;13.720;2022-12-07T08:49:22;6.13;;;3.63;;
34978;SDS011;21185;50.978;13.720;2022-12-07T08:54:27;7.25;;;4.00;;
34978;SDS011;21185;50.978;13.720;2022-12-07T08:59:30;6.75;;;3.53;;
34978;SDS011;21185;50.978;13.720;2022-12-07T09:04:32;6.07;;;3.85;;
34978;SDS011;21185;50.978;13.720;2022-12-07T09:09:34;6.03;;;4.03;;
34978;SDS011;21185;50.978;13.720;2022-12-07T09:14:36;5.40;;;2.72;;
34978;SDS011;21185;50.978;13.720;2022-12-07T09:19:38;6.78;;;3.72;;
34978;SDS011;21185;50.978;13.720;2022-12-07T09:24:39;6.00;;;3.17;;
34978;SDS011;21185;50.978;13.720;2022-12-07T09:29:41;7.28;;;4.07;;
34978;SDS011;21185;50.978;13.720;2022-12-07T09:34:43;7.20;;;3.55;;
34978;SDS011;21185;50.978;13.720;2022-12-07T09:39:45;10.25;;;3.78;;
34978;SDS011;21185;50.978;13.720;2022-12-07T09:45:04;9.45;;;3.67;;
34978;SDS011;21185;50.978;13.720;2022-12-07T09:50:15;6.97;;;3.17;;
34978;SDS011;21185;50.978;13.720;2022-12-07T09:55:24;6.85;;;3.67;;
34978;SDS011;21185;50.978;13.720;2022-12-07T10:00:29;7.50;;;2.97;;
34978;SDS011;21185;50.978;13.720;2022-12-07T10:05:41;5.28;;;2.42;;
34978;SDS011;21185;50.978;13.720;2022-12-07T10:10:48;4.22;;;2.03;;
34978;SDS011;21185;50.978;13.720;2022-12-07T10:15:54;5.82;;;2.97;;
34978;SDS011;21185;50.978;13.720;2022-12-07T10:31:34;6.53;;;3.22;;
34978;SDS011;21185;50.978;13.720;2022-12-07T10:36:41;7.90;;;2.90;;
34978;SDS011;21185;50.978;13.720;2022-12-07T10:41:55;5.82;;;2.60;;
34978;SDS011;21185;50.978;13.720;2022-12-07T11:02:49;8.65;;;3.45;;
34978;SDS011;21185;50.978;13.720;2022-12-07T11:13:23;5.93;;;3.20;;
34978;SDS011;21185;50.978;13.720;2022-12-07T11:18:32;9.68;;;3.30;;
34978;SDS011;21185;50.978;13.720;2022-12-07T11:39:55;6.15;;;2.63;;
34978;SDS011;21185;50.978;13.720;2022-12-07T11:45:14;5.80;;;2.75;;
34978;SDS011;21185;50.978;13.720;2022-12-07T11:55:29;7.55;;;3.17;;
34978;SDS011;21185;50.978;13.720;2022-12-07T12:00:41;6.88;;;3.45;;
34978;SDS011;21185;50.978;13.720;2022-12-07T12:05:43;9.60;;;2.50;;
34978;SDS011;21185;50.978;13.720;2022-12-07T12:10:55;5.43;;;2.33;;
34978;SDS011;21185;50.978;13.720;2022-12-07T12:16:11;5.28;;;2.42;;
34978;SDS011;21185;50.978;13.720;2022-12-07T12:21:22;5.22;;;3.08;;
34978;SDS011;21185;50.978;13.720;2022-12-07T12:26:31;7.72;;;3.53;;
34978;SDS011;21185;50.978;13.720;2022-12-07T12:31:38;6.30;;;2.90;;
34978;SDS011;21185;50.978;13.720;2022-12-07T12:36:44;6.13;;;3.00;;
34978;SDS011;21185;50.978;13.720;2022-12-07T12:51:56;3.75;;;2.28;;
34978;SDS011;21185;50.978;13.720;2022-12-07T12:57:15;3.55;;;2.47;;
34978;SDS011;21185;50.978;13.720;2022-12-07T13:02:26;6.55;;;2.47;;
34978;SDS011;21185;50.978;13.720;2022-12-07T13:23:36;6.75;;;2.80;;
34978;SDS011;21185;50.978;13.720;2022-12-07T13:33:50;5.32;;;2.53;;
34978;SDS011;21185;50.978;13.720;2022-12-07T13:38:56;4.32;;;2.40;;
34978;SDS011;21185;50.978;13.720;2022-12-07T13:44:03;5.00;;;2.72;;
34978;SDS011;21185;50.978;13.720;2022-12-07T13:49:16;6.03;;;2.40;;
34978;SDS011;21185;50.978;13.720;2022-12-07T13:54:20;7.20;;;2.00;;
34978;SDS011;21185;50.978;13.720;2022-12-07T13:59:23;3.05;;;2.03;;
34978;SDS011;21185;50.978;13.720;2022-12-07T14:04:35;2.75;;;1.80;;
34978;SDS011;21185;50.978;13.720;2022-12-07T14:09:37;8.68;;;1.95;;
34978;SDS011;21185;50.978;13.720;2022-12-07T14:14:39;3.75;;;1.65;;
34978;SDS011;21185;50.978;13.720;2022-12-07T14:30:03;5.18;;;2.05;;
34978;SDS011;21185;50.978;13.720;2022-12-07T14:35:10;3.00;;;1.40;;
34978;SDS011;21185;50.978;13.720;2022-12-07T14:40:16;2.95;;;1.60;;
34978;SDS011;21185;50.978;13.720;2022-12-07T14:45:24;5.35;;;1.30;;
34978;SDS011;21185;50.978;13.720;2022-12-07T14:50:26;2.83;;;1.50;;
34978;SDS011;21185;50.978;13.720;2022-12-07T14:55:30;3.20;;;1.55;;
34978;SDS011;21185;50.978;13.720;2022-12-07T15:00:32;10.27;;;1.55;;
34978;SDS011;21185;50.978;13.720;2022-12-07T15:05:35;10.73;;;3.22;;
34978;SDS011;21185;50.978;13.720;2022-12-07T15:10:38;3.30;;;1.77;;
34978;SDS011;21185;50.978;13.720;2022-12-07T15:15:42;5.65;;;1.52;;
34978;SDS011;21185;50.978;13.720;2022-12-07T15:20:44;5.65;;;1.75;;
34978;SDS011;21185;50.978;13.720;2022-12-07T15:25:47;4.57;;;1.65;;
34978;SDS011;21185;50.978;13.720;2022-12-07T15:30:49;2.50;;;1.40;;
34978;SDS011;21185;50.978;13.720;2022-12-07T15:35:51;3.10;;;1.92;;
34978;SDS011;21185;50.978;13.720;2022-12-07T15:40:53;2.78;;;1.50;;
34978;SDS011;21185;50.978;13.720;2022-12-07T15:45:55;3.45;;;2.03;;
34978;SDS011;21185;50.978;13.720;2022-12-07T15:51:03;3.20;;;1.50;;
34978;SDS011;21185;50.978;13.720;2022-12-07T15:56:09;6.70;;;2.28;;
34978;SDS011;21185;50.978;13.720;2022-12-07T16:01:11;6.18;;;1.50;;
34978;SDS011;21185;50.978;13.720;2022-12-07T16:06:18;2.67;;;1.83;;
34978;SDS011;21185;50.978;13.720;2022-12-07T16:11:21;2.42;;;1.38;;
34978;SDS011;21185;50.978;13.720;2022-12-07T16:16:23;7.88;;;2.65;;
34978;SDS011;21185;50.978;13.720;2022-12-07T16:21:25;3.90;;;1.60;;
34978;SDS011;21185;50.978;13.720;2022-12-07T16:26:27;3.97;;;1.60;;
34978;SDS011;21185;50.978;13.720;2022-12-07T16:31:29;9.45;;;2.45;;
34978;SDS011;21185;50.978;13.720;2022-12-07T16:36:31;7.25;;;2.85;;
34978;SDS011;21185;50.978;13.720;2022-12-07T16:41:53;3.42;;;1.90;;
34978;SDS011;21185;50.978;13.720;2022-12-07T16:46:55;9.55;;;2.80;;
34978;SDS011;21185;50.978;13.720;2022-12-07T16:51:57;3.35;;;1.80;;
34978;SDS011;21185;50.978;13.720;2022-12-07T16:57:19;4.38;;;2.40;;
34978;SDS011;21185;50.978;13.720;2022-12-07T17:02:24;3.42;;;2.38;;
34978;SDS011;21185;50.978;13.720;2022-12-07T17:07:26;3.88;;;1.48;;
34978;SDS011;21185;50.978;13.720;2022-12-07T17:12:28;4.13;;;1.42;;
34978;SDS011;21185;50.978;13.720;2022-12-07T17:17:30;3.55;;;2.00;;
34978;SDS011;21185;50.978;13.720;2022-12-07T17:22:32;6.60;;;1.42;;
34978;SDS011;21185;50.978;13.720;2022-12-07T17:27:33;4.45;;;1.95;;
34978;SDS011;21185;50.978;13.720;2022-12-07T17:32:35;3.05;;;1.83;;
34978;SDS011;21185;50.978;13.720;2022-12-07T17:37:37;3.08;;;1.83;;
34978;SDS011;21185;50.978;13.720;2022-12-07T17:42:39;5.93;;;1.92;;
34978;SDS011;21185;50.978;13.720;2022-12-07T17:47:41;3.33;;;1.83;;
34978;SDS011;21185;50.978;13.720;2022-12-07T17:52:43;2.60;;;1.92;;
34978;SDS011;21185;50.978;13.720;2022-12-07T17:58:20;4.80;;;2.13;;
34978;SDS011;21185;50.978;13.720;2022-12-07T18:03:22;4.22;;;1.90;;
34978;SDS011;21185;50.978;13.720;2022-12-07T18:08:24;5.07;;;1.50;;
34978;SDS011;21185;50.978;13.720;2022-12-07T18:13:26;6.97;;;1.80;;
34978;SDS011;21185;50.978;13.720;2022-12-07T18:18:37;9.70;;;2.65;;
34978;SDS011;21185;50.978;13.720;2022-12-07T18:23:40;2.97;;;2.03;;
34978;SDS011;21185;50.978;13.720;2022-12-07T18:28:42;7.95;;;2.20;;
34978;SDS011;21185;50.978;13.720;2022-12-07T18:33:45;6.95;;;2.30;;
34978;SDS011;21185;50.978;13.720;2022-12-07T18:38:48;4.63;;;2.30;;
34978;SDS011;21185;50.978;13.720;2022-12-07T18:43:50;1.48;;;1.33;;
34978;SDS011;21185;50.978;13.720;2022-12-07T18:48:52;5.50;;;1.90;;
34978;SDS011;21185;50.978;13.720;2022-12-07T18:53:57;2.78;;;1.52;;
34978;SDS011;21185;50.978;13.720;2022-12-07T18:59:02;3.42;;;1.90;;
34978;SDS011;21185;50.978;13.720;2022-12-07T19:04:28;7.72;;;1.92;;
34978;SDS011;21185;50.978;13.720;2022-12-07T19:09:30;3.75;;;1.70;;
34978;SDS011;21185;50.978;13.720;2022-12-07T19:14:33;4.90;;;1.80;;
34978;SDS011;21185;50.978;13.720;2022-12-07T19:19:44;4.80;;;2.65;;
34978;SDS011;21185;50.978;13.720;2022-12-07T19:24:48;4.20;;;2.63;;
34978;SDS011;21185;50.978;13.720;2022-12-07T19:29:54;3.50;;;2.50;;
34978;SDS011;21185;50.978;13.720;2022-12-07T19:34:56;4.68;;;2.17;;
34978;SDS011;21185;50.978;13.720;2022-12-07T19:39:58;4.47;;;2.55;;
34978;SDS011;21185;50.978;13.720;2022-12-07T19:45:01;6.15;;;2.38;;
34978;SDS011;21185;50.978;13.720;2022-12-07T19:50:04;5.20;;;2.42;;
34978;SDS011;21185;50.978;13.720;2022-12-07T19:55:06;4.78;;;2.65;;
34978;SDS011;21185;50.978;13.720;2022-12-07T20:00:08;14.50;;;2.47;;
34978;SDS011;21185;50.978;13.720;2022-12-07T20:05:10;5.85;;;2.00;;
34978;SDS011;21185;50.978;13.720;2022-12-07T20:10:13;4.03;;;1.52;;
34978;SDS011;21185;50.978;13.720;2022-12-07T20:15:15;3.85;;;2.30;;
34978;SDS011;21185;50.978;13.720;2022-12-07T20:20:19;5.47;;;2.20;;
34978;SDS011;21185;50.978;13.720;2022-12-07T20:25:21;3.38;;;1.98;;
34978;SDS011;21185;50.978;13.720;2022-12-07T20:30:22;3.58;;;1.77;;
34978;SDS011;21185;50.978;13.720;2022-12-07T20:35:28;5.00;;;1.20;;
34978;SDS011;21185;50.978;13.720;2022-12-07T20:40:29;2.78;;;1.80;;
34978;SDS011;21185;50.978;13.720;2022-12-07T20:45:31;5.40;;;2.03;;
34978;SDS011;21185;50.978;13.720;2022-12-07T20:50:33;5.97;;;2.58;;
34978;SDS011;21185;50.978;13.720;2022-12-07T20:55:42;7.53;;;2.03;;
34978;SDS011;21185;50.978;13.720;2022-12-07T21:00:44;7.32;;;2.38;;
34978;SDS011;21185;50.978;13.720;2022-12-07T21:05:46;3.00;;;2.00;;
34978;SDS011;21185;50.978;13.720;2022-12-07T21:10:51;2.50;;;1.77;;
34978;SDS011;21185;50.978;13.720;2022-12-07T21:15:53;4.07;;;1.85;;
34978;SDS011;21185;50.978;13.720;2022-12-07T21:20:58;2.75;;;1.75;;
34978;SDS011;21185;50.978;13.720;2022-12-07T21:26:16;8.90;;;2.40;;
34978;SDS011;21185;50.978;13.720;2022-12-07T21:31:19;5.73;;;1.90;;
34978;SDS011;21185;50.978;13.720;2022-12-07T21:36:23;4.03;;;1.83;;
34978;SDS011;21185;50.978;13.720;2022-12-07T21:41:28;6.70;;;2.35;;
34978;SDS011;21185;50.978;13.720;2022-12-07T21:46:35;3.58;;;2.17;;
34978;SDS011;21185;50.978;13.720;2022-12-07T21:51:39;5.82;;;2.22;;
34978;SDS011;21185;50.978;13.720;2022-12-07T21:56:42;5.25;;;2.60;;
34978;SDS011;21185;50.978;13.720;2022-12-07T22:01:45;6.53;;;2.35;;
34978;SDS011;21185;50.978;13.720;2022-12-07T22:06:49;3.83;;;2.05;;
34978;SDS011;21185;50.978;13.720;2022-12-07T22:11:52;6.68;;;2.10;;
34978;SDS011;21185;50.978;13.720;2022-12-07T22:16:54;5.82;;;2.33;;
34978;SDS011;21185;50.978;13.720;2022-12-07T22:21:56;2.67;;;2.00;;
34978;SDS011;21185;50.978;13.720;2022-12-07T22:26:58;4.13;;;1.98;;
34978;SDS011;21185;50.978;13.720;2022-12-07T22:32:00;3.42;;;2.35;;
34978;SDS011;21185;50.978;13.720;2022-12-07T22:37:22;4.47;;;2.28;;
34978;SDS011;21185;50.978;13.720;2022-12-07T22:42:23;7.88;;;2.28;;
34978;SDS011;21185;50.978;13.720;2022-12-07T22:47:25;4.32;;;2.40;;
34978;SDS011;21185;50.978;13.720;2022-12-07T22:52:27;4.88;;;2.13;;
34978;SDS011;21185;50.978;13.720;2022-12-07T22:57:29;9.85;;;2.53;;
34978;SDS011;21185;50.978;13.720;2022-12-07T23:02:31;5.03;;;2.30;;
34978;SDS011;21185;50.978;13.720;2022-12-07T23:07:33;4.50;;;2.05;;
34978;SDS011;21185;50.978;13.720;2022-12-07T23:12:35;3.50;;;1.70;;
34978;SDS011;21185;50.978;13.720;2022-12-07T23:17:56;6.05;;;2.33;;
34978;SDS011;21185;50.978;13.720;2022-12-07T23:22:57;4.15;;;2.30;;
34978;SDS011;21185;50.978;13.720;2022-12-07T23:27:59;4.25;;;2.35;;
34978;SDS011;21185;50.978;13.720;2022-12-07T23:33:01;5.72;;;2.42;;
34978;SDS011;21185;50.978;13.720;2022-12-07T23:38:03;6.20;;;2.42;;
34978;SDS011;21185;50.978;13.720;2022-12-07T23:43:05;4.93;;;2.58;;
34978;SDS011;21185;50.978;13.720;2022-12-07T23:48:07;3.03;;;2.22;;
34978;SDS011;21185;50.978;13.720;2022-12-07T23:53:09;4.32;;;2.45;;
34978;SDS011;21185;50.978;13.720;2022-12-07T23:58:11;4.82;;;2.53;;
